createdAt,value
2023-10-03T00:02:07.780Z,20.78
2023-10-03T00:04:40.185Z,20.45
2023-10-03T00:07:15.091Z,20.76
2023-10-03T00:09:47.820Z,20.16
2023-10-03T00:12:20.528Z,21.39
2023-10-03T00:14:53.032Z,21.08
2023-10-03T00:17:25.456Z,21.73
2023-10-03T00:19:57.864Z,20.18
2023-10-03T00:22:32.798Z,22.31
2023-10-03T00:25:06.316Z,22.38
2023-10-03T00:27:39.073Z,22.27
2023-10-03T00:30:13.484Z,21.99
2023-10-03T00:32:47.827Z,21.86
2023-10-03T00:35:22.719Z,22.24
2023-10-03T00:37:58.861Z,22.50
2023-10-03T00:40:33.118Z,22.91
2023-10-03T00:43:05.810Z,22.31
2023-10-03T00:45:39.376Z,22.96
2023-10-03T00:48:13.295Z,22.63
2023-10-03T00:50:47.452Z,24.18
2023-10-03T00:53:23.351Z,23.06
2023-10-03T00:56:00.740Z,23.57
2023-10-03T00:58:33.873Z,21.72
2023-10-03T01:01:07.118Z,23.33
2023-10-03T01:03:42.446Z,24.12
2023-10-03T01:06:17.033Z,24.91
2023-10-03T01:08:53.562Z,24.71
2023-10-03T01:11:26.606Z,23.10
2023-10-03T01:14:01.887Z,23.88
2023-10-03T01:16:36.204Z,23.69
2023-10-03T01:19:15.735Z,23.29
2023-10-03T01:21:48.493Z,23.98
2023-10-03T01:24:28.229Z,22.75
2023-10-03T01:27:00.661Z,23.40
2023-10-03T01:29:33.112Z,23.10
2023-10-03T01:32:05.564Z,23.94
2023-10-03T01:34:38.023Z,24.26
2023-10-03T01:37:10.370Z,23.90
2023-10-03T01:39:45.289Z,25.05
2023-10-03T01:42:17.929Z,23.77
2023-10-03T01:44:51.741Z,24.41
2023-10-03T01:47:24.128Z,24.52
2023-10-03T01:49:56.552Z,23.34
2023-10-03T01:52:29.190Z,24.65
2023-10-03T01:55:04.192Z,24.14
2023-10-03T01:57:36.615Z,24.41
2023-10-03T02:00:21.175Z,23.95
2023-10-03T02:02:54.397Z,24.21
2023-10-03T02:05:28.849Z,24.59
2023-10-03T02:08:05.524Z,23.64
2023-10-03T02:10:40.859Z,23.93
2023-10-03T02:13:16.354Z,23.75
2023-10-03T02:15:51.105Z,23.91
2023-10-03T02:18:25.772Z,24.24
2023-10-03T02:21:02.848Z,24.28
2023-10-03T02:23:36.649Z,23.64
2023-10-03T02:26:17.707Z,24.28
2023-10-03T02:28:51.027Z,24.37
2023-10-03T02:31:23.444Z,25.06
2023-10-03T02:33:57.271Z,25.19
2023-10-03T02:36:29.597Z,23.49
2023-10-03T02:39:02.306Z,23.52
2023-10-03T02:41:38.172Z,23.75
2023-10-03T02:44:11.516Z,23.04
2023-10-03T02:46:43.862Z,24.25
2023-10-03T02:49:16.432Z,22.87
2023-10-03T02:51:50.524Z,22.90
2023-10-03T02:54:24.088Z,21.75
2023-10-03T02:56:59.090Z,23.56
2023-10-03T02:59:32.609Z,22.19
2023-10-03T03:02:06.917Z,22.99
2023-10-03T03:04:40.129Z,23.32
2023-10-03T03:07:14.172Z,21.96
2023-10-03T03:09:46.606Z,22.08
2023-10-03T03:12:22.843Z,21.54
2023-10-03T03:14:57.511Z,22.21
2023-10-03T03:17:30.041Z,19.98
2023-10-03T03:20:12.334Z,21.31
2023-10-03T03:22:44.805Z,21.37
2023-10-03T03:25:23.103Z,19.43
2023-10-03T03:27:58.849Z,20.39
2023-10-03T03:30:46.279Z,20.01
2023-10-03T03:33:21.371Z,20.46
2023-10-03T03:35:53.872Z,18.94
2023-10-03T03:38:26.729Z,17.46
2023-10-03T03:41:06.039Z,17.90
2023-10-03T03:43:41.270Z,16.52
2023-10-03T03:46:14.000Z,15.77
2023-10-03T03:48:48.345Z,15.73
2023-10-03T03:51:21.120Z,14.53
2023-10-03T03:53:54.406Z,13.57
2023-10-03T03:56:26.852Z,12.79
2023-10-03T03:59:01.949Z,12.19
2023-10-03T04:01:34.930Z,12.08
2023-10-03T04:04:11.243Z,10.88
2023-10-03T04:06:44.114Z,9.54
2023-10-03T04:09:17.498Z,8.96
2023-10-03T04:11:50.107Z,8.69
2023-10-03T04:14:26.155Z,8.11
2023-10-03T04:16:58.385Z,8.19
2023-10-03T04:19:30.723Z,7.62
2023-10-03T04:22:03.266Z,7.63
2023-10-03T04:24:35.591Z,7.77
2023-10-03T04:27:08.551Z,7.94
2023-10-03T04:29:43.666Z,7.87
2023-10-03T04:32:15.961Z,8.49
2023-10-03T04:34:48.384Z,8.12
2023-10-03T04:37:20.780Z,8.06
2023-10-03T04:39:53.109Z,7.66
2023-10-03T04:42:25.489Z,7.24
2023-10-03T04:45:00.510Z,7.27
2023-10-03T04:47:34.322Z,7.13
2023-10-03T04:50:06.717Z,6.99
2023-10-03T04:52:39.087Z,6.59
2023-10-03T04:55:14.653Z,6.93
2023-10-03T04:57:47.392Z,6.76
2023-10-03T05:00:24.499Z,7.23
2023-10-03T05:02:59.089Z,6.95
2023-10-03T05:05:33.783Z,6.77
2023-10-03T05:08:06.719Z,6.69
2023-10-03T05:10:40.381Z,6.61
2023-10-03T05:13:13.390Z,6.65
2023-10-03T05:15:48.255Z,6.57
2023-10-03T05:18:20.550Z,6.01
2023-10-03T05:20:53.198Z,6.64
2023-10-03T05:23:25.707Z,6.09
2023-10-03T05:25:58.550Z,6.01
2023-10-03T05:28:30.952Z,5.58
2023-10-03T05:31:05.996Z,5.71
2023-10-03T05:33:38.386Z,5.44
2023-10-03T05:36:11.280Z,5.31
2023-10-03T05:38:43.573Z,5.50
2023-10-03T05:41:24.799Z,5.14
2023-10-03T05:43:57.768Z,4.93
2023-10-03T05:46:33.544Z,5.04
2023-10-03T05:49:05.969Z,5.12
2023-10-03T05:51:38.341Z,5.04
2023-10-03T05:54:10.693Z,4.79
2023-10-03T05:56:43.018Z,4.60
2023-10-03T05:59:16.203Z,4.51
2023-10-03T06:01:51.275Z,4.41
2023-10-03T06:04:23.843Z,4.74
2023-10-03T06:06:56.255Z,4.83
2023-10-03T06:09:28.499Z,4.66
2023-10-03T06:12:00.910Z,4.65
2023-10-03T06:14:34.894Z,4.74
2023-10-03T06:17:11.346Z,4.71
2023-10-03T06:19:43.691Z,4.81
2023-10-03T06:22:16.644Z,5.06
2023-10-03T06:24:50.509Z,4.84
2023-10-03T06:27:22.838Z,5.09
2023-10-03T06:29:55.344Z,4.75
2023-10-03T06:32:30.622Z,4.89
2023-10-03T06:35:06.447Z,4.80
2023-10-03T06:37:39.533Z,4.89
2023-10-03T06:40:15.263Z,4.71
2023-10-03T06:42:47.699Z,4.45
2023-10-03T06:45:22.554Z,4.79
2023-10-03T06:47:57.604Z,4.24
2023-10-03T06:50:30.040Z,4.17
2023-10-03T06:53:02.559Z,4.01
2023-10-03T06:55:37.057Z,3.78
2023-10-03T06:58:12.088Z,3.76
2023-10-03T07:00:45.048Z,3.21
2023-10-03T07:03:20.908Z,3.21
2023-10-03T07:05:53.603Z,3.10
2023-10-03T07:08:26.688Z,3.06
2023-10-03T07:11:00.118Z,3.13
2023-10-03T07:13:35.564Z,2.98
2023-10-03T07:16:10.317Z,3.18
2023-10-03T07:18:48.405Z,3.06
2023-10-03T07:21:21.114Z,3.00
2023-10-03T07:23:54.795Z,2.75
2023-10-03T07:26:29.312Z,2.59
2023-10-03T07:29:03.562Z,2.83
2023-10-03T07:31:38.463Z,2.56
2023-10-03T07:34:18.859Z,2.37
2023-10-03T07:36:51.145Z,2.23
2023-10-03T07:39:26.450Z,2.34
2023-10-03T07:41:58.858Z,2.45
2023-10-03T07:44:31.609Z,2.42
2023-10-03T07:47:05.163Z,2.33
2023-10-03T07:49:42.608Z,2.10
2023-10-03T07:52:15.383Z,2.31
2023-10-03T07:54:50.072Z,2.37
2023-10-03T07:57:22.358Z,2.21
2023-10-03T07:59:54.974Z,2.27
2023-10-03T08:02:33.761Z,2.09
2023-10-03T08:05:09.890Z,1.68
2023-10-03T08:07:44.059Z,1.61
2023-10-03T08:10:16.680Z,1.56
2023-10-03T08:12:53.996Z,1.49
2023-10-03T08:15:33.008Z,1.54
2023-10-03T08:18:05.902Z,1.76
2023-10-03T08:20:41.383Z,2.08
2023-10-03T08:23:15.220Z,1.92
2023-10-03T08:25:47.469Z,2.01
2023-10-03T08:28:22.062Z,1.77
2023-10-03T08:30:56.872Z,1.61
2023-10-03T08:33:29.311Z,1.61
2023-10-03T08:36:04.460Z,1.22
2023-10-03T08:38:44.916Z,1.20
2023-10-03T08:41:27.556Z,1.16
2023-10-03T08:44:07.018Z,1.18
2023-10-03T08:46:42.772Z,1.22
2023-10-03T08:49:19.074Z,1.04
2023-10-03T08:51:54.931Z,1.09
2023-10-03T08:54:37.965Z,1.41
2023-10-03T08:57:11.301Z,1.56
2023-10-03T08:59:44.099Z,1.54
2023-10-03T09:02:25.746Z,1.84
2023-10-03T09:04:58.663Z,1.74
2023-10-03T09:07:47.730Z,1.92
2023-10-03T09:10:26.785Z,1.71
2023-10-03T09:13:05.434Z,1.66
2023-10-03T09:15:39.129Z,1.33
2023-10-03T09:18:16.575Z,1.26
2023-10-03T09:20:51.314Z,1.39
2023-10-03T09:23:26.311Z,1.37
2023-10-03T09:25:59.940Z,1.27
2023-10-03T09:28:37.044Z,1.09
2023-10-03T09:31:12.296Z,1.25
2023-10-03T09:33:46.980Z,1.33
2023-10-03T09:36:20.185Z,1.39
2023-10-03T09:38:57.185Z,1.29
2023-10-03T09:41:31.430Z,1.50
2023-10-03T09:44:06.744Z,1.29
2023-10-03T09:46:42.722Z,1.30
2023-10-03T09:49:16.252Z,1.39
2023-10-03T09:51:52.954Z,1.19
2023-10-03T09:54:32.116Z,1.48
2023-10-03T09:57:16.661Z,1.59
2023-10-03T09:59:51.123Z,1.74
2023-10-03T10:02:32.440Z,1.61
2023-10-03T10:05:20.788Z,1.81
2023-10-03T10:08:08.287Z,1.82
2023-10-03T10:10:43.230Z,1.65
2023-10-03T10:13:22.416Z,1.59
2023-10-03T10:16:22.460Z,1.46
2023-10-03T10:19:06.087Z,1.35
2023-10-03T10:21:41.001Z,1.39
2023-10-03T10:24:38.129Z,1.17
2023-10-03T10:27:25.819Z,1.10
2023-10-03T10:30:14.995Z,1.23
2023-10-03T10:33:17.817Z,1.41
2023-10-03T10:35:58.117Z,1.11
2023-10-03T10:38:58.974Z,1.29
2023-10-03T10:41:29.079Z,1.52
2023-10-03T10:44:18.429Z,1.19
2023-10-03T10:46:53.532Z,1.56
2023-10-03T10:50:09.651Z,1.67
2023-10-03T10:52:55.511Z,1.78
2023-10-03T10:55:29.363Z,1.70
2023-10-03T10:58:10.008Z,1.68
2023-10-03T11:00:46.103Z,1.64
2023-10-03T11:03:26.147Z,1.69
2023-10-03T11:06:00.325Z,1.84
2023-10-03T11:08:32.751Z,1.75
2023-10-03T11:11:05.048Z,1.63
2023-10-03T11:13:49.998Z,1.84
2023-10-03T11:16:32.963Z,1.93
2023-10-03T11:19:07.931Z,1.84
2023-10-03T11:21:41.793Z,1.84
2023-10-03T11:24:16.455Z,2.01
2023-10-03T11:26:51.582Z,1.74
2023-10-03T11:29:40.835Z,1.80
2023-10-03T11:32:30.599Z,1.99
2023-10-03T11:35:04.250Z,2.00
2023-10-03T11:37:41.451Z,1.87
2023-10-03T11:40:17.743Z,2.10
2023-10-03T11:42:51.908Z,2.01
2023-10-03T11:45:30.623Z,1.99
2023-10-03T11:48:12.541Z,2.14
2023-10-03T11:50:45.773Z,2.11
2023-10-03T11:53:20.170Z,2.16
2023-10-03T11:55:57.831Z,2.55
2023-10-03T11:58:30.750Z,2.32
2023-10-03T12:01:03.412Z,2.41
2023-10-03T12:03:39.443Z,2.51
2023-10-03T12:06:11.912Z,2.64
2023-10-03T12:08:44.915Z,2.64
2023-10-03T12:11:17.788Z,2.51
2023-10-03T12:13:50.108Z,2.57
2023-10-03T12:16:23.701Z,2.65
2023-10-03T12:18:59.187Z,2.82
2023-10-03T12:21:31.648Z,3.29
2023-10-03T12:24:04.557Z,2.99
2023-10-03T12:26:37.651Z,2.94
2023-10-03T12:29:11.901Z,2.84
2023-10-03T12:31:45.745Z,2.76
2023-10-03T12:34:20.739Z,3.03
2023-10-03T12:36:53.020Z,2.93
2023-10-03T12:39:26.285Z,2.79
2023-10-03T12:41:59.718Z,2.85
2023-10-03T12:44:32.358Z,2.69
2023-10-03T12:47:05.595Z,3.03
2023-10-03T12:49:42.103Z,3.03
2023-10-03T12:52:14.358Z,3.01
2023-10-03T12:54:46.853Z,2.90
2023-10-03T12:57:19.323Z,2.76
2023-10-03T12:59:53.672Z,2.89
2023-10-03T13:02:27.655Z,2.58
2023-10-03T13:05:06.603Z,2.86
2023-10-03T13:07:41.723Z,2.81
2023-10-03T13:10:15.034Z,3.01
2023-10-03T13:12:48.141Z,2.81
2023-10-03T13:15:22.198Z,2.54
2023-10-03T13:17:57.858Z,2.84
2023-10-03T13:20:32.746Z,2.71
2023-10-03T13:23:06.160Z,2.77
2023-10-03T13:25:39.326Z,2.89
2023-10-03T13:28:12.191Z,2.80
2023-10-03T13:30:44.726Z,2.61
2023-10-03T13:33:17.217Z,2.99
2023-10-03T13:35:52.198Z,2.77
2023-10-03T13:38:24.697Z,2.94
2023-10-03T13:40:56.947Z,2.39
2023-10-03T13:43:31.097Z,2.49
2023-10-03T13:46:03.539Z,2.46
2023-10-03T13:48:37.125Z,2.69
2023-10-03T13:51:16.237Z,2.51
2023-10-03T13:53:48.843Z,2.21
2023-10-03T13:56:22.547Z,2.26
2023-10-03T13:58:54.813Z,2.48
2023-10-03T14:01:27.201Z,2.34
2023-10-03T14:03:59.589Z,2.26
2023-10-03T14:06:35.527Z,2.48
2023-10-03T14:09:10.882Z,2.24
2023-10-03T14:11:43.430Z,2.39
2023-10-03T14:14:15.824Z,2.39
2023-10-03T14:16:48.113Z,2.18
2023-10-03T14:19:20.992Z,2.29
2023-10-03T14:21:55.945Z,2.54
2023-10-03T14:24:28.390Z,2.49
2023-10-03T14:27:00.941Z,2.59
2023-10-03T14:29:33.313Z,2.24
2023-10-03T14:32:05.653Z,2.35
2023-10-03T14:34:38.097Z,2.63
2023-10-03T14:37:14.593Z,2.59
2023-10-03T14:39:46.935Z,2.53
2023-10-03T14:42:19.294Z,2.40
2023-10-03T14:44:51.868Z,2.44
2023-10-03T14:47:24.223Z,2.59
2023-10-03T14:49:56.700Z,2.44
2023-10-03T14:52:31.868Z,2.43
2023-10-03T14:55:05.897Z,2.49
2023-10-03T14:57:38.194Z,2.53
2023-10-03T15:00:12.707Z,2.48
2023-10-03T15:02:45.624Z,2.54
2023-10-03T15:05:18.926Z,2.20
2023-10-03T15:07:53.855Z,2.41
2023-10-03T15:10:26.111Z,2.47
2023-10-03T15:13:00.084Z,2.37
2023-10-03T15:15:33.978Z,2.25
2023-10-03T15:18:06.382Z,2.61
2023-10-03T15:20:38.918Z,2.52
2023-10-03T15:23:13.956Z,2.26
2023-10-03T15:25:49.507Z,2.45
2023-10-03T15:28:21.932Z,2.47
2023-10-03T15:30:57.121Z,2.39
2023-10-03T15:33:30.064Z,2.47
2023-10-03T15:36:02.482Z,2.56
2023-10-03T15:38:38.352Z,2.47
2023-10-03T15:41:10.645Z,2.67
2023-10-03T15:43:44.675Z,2.66
2023-10-03T15:46:17.591Z,2.86
2023-10-03T15:48:49.936Z,2.59
2023-10-03T15:51:25.425Z,2.78
2023-10-03T15:54:00.781Z,2.49
2023-10-03T15:56:34.129Z,2.63
2023-10-03T15:59:10.223Z,2.81
2023-10-03T16:01:43.136Z,2.77
2023-10-03T16:04:15.818Z,2.59
2023-10-03T16:06:48.859Z,2.55
2023-10-03T16:09:26.297Z,2.51
2023-10-03T16:11:59.819Z,2.66
2023-10-03T16:14:32.149Z,2.56
2023-10-03T16:17:04.523Z,2.69
2023-10-03T16:19:37.909Z,2.52
2023-10-03T16:22:10.880Z,2.61
2023-10-03T16:24:45.917Z,2.71
2023-10-03T16:27:18.484Z,2.54
2023-10-03T16:29:50.883Z,2.73
2023-10-03T16:32:23.267Z,2.61
2023-10-03T16:34:55.646Z,2.56
2023-10-03T16:37:28.121Z,2.56
2023-10-03T16:40:04.651Z,2.48
2023-10-03T16:42:37.841Z,2.36
2023-10-03T16:45:11.687Z,2.40
2023-10-03T16:47:44.856Z,2.66
2023-10-03T16:50:18.208Z,2.61
2023-10-03T16:52:52.303Z,2.54
2023-10-03T16:55:27.347Z,2.64
2023-10-03T16:58:01.594Z,2.45
2023-10-03T17:00:36.304Z,2.50
2023-10-03T17:03:09.723Z,2.51
2023-10-03T17:05:44.406Z,2.55
2023-10-03T17:08:17.200Z,2.76
2023-10-03T17:10:52.296Z,2.58
2023-10-03T17:13:24.756Z,2.36
2023-10-03T17:15:57.085Z,2.56
2023-10-03T17:18:31.557Z,2.17
2023-10-03T17:21:09.526Z,2.37
2023-10-03T17:23:44.238Z,2.56
2023-10-03T17:26:22.558Z,2.41
2023-10-03T17:28:58.510Z,2.71
2023-10-03T17:31:31.178Z,3.00
2023-10-03T17:34:05.244Z,2.99
2023-10-03T17:36:37.793Z,2.50
2023-10-03T17:39:12.248Z,2.65
2023-10-03T17:41:48.171Z,2.66
2023-10-03T17:44:22.046Z,2.66
2023-10-03T17:46:54.339Z,3.41
2023-10-03T17:49:26.907Z,3.20
2023-10-03T17:51:59.219Z,3.08
2023-10-03T17:54:34.266Z,3.09
2023-10-03T17:57:10.644Z,2.79
2023-10-03T17:59:50.235Z,2.59
2023-10-03T18:02:35.044Z,3.07
2023-10-03T18:05:08.659Z,2.99
2023-10-03T18:07:43.282Z,3.03
2023-10-03T18:10:18.743Z,3.09
2023-10-03T18:13:01.154Z,3.04
2023-10-03T18:15:33.953Z,3.07
2023-10-03T18:18:06.351Z,2.90
2023-10-03T18:20:38.858Z,2.91
2023-10-03T18:23:11.776Z,2.99
2023-10-03T18:25:45.258Z,3.18
2023-10-03T18:28:20.360Z,2.79
2023-10-03T18:30:54.059Z,2.81
2023-10-03T18:33:26.877Z,2.95
2023-10-03T18:35:59.408Z,2.64
2023-10-03T18:38:33.342Z,3.11
2023-10-03T18:41:05.582Z,2.84
2023-10-03T18:43:40.676Z,2.91
2023-10-03T18:46:13.401Z,2.96
2023-10-03T18:48:45.899Z,3.16
2023-10-03T18:51:18.636Z,3.09
2023-10-03T18:53:54.334Z,2.70
2023-10-03T18:56:26.739Z,2.91
2023-10-03T18:59:01.892Z,2.81
2023-10-03T19:01:48.300Z,3.06
2023-10-03T19:04:22.662Z,2.95
2023-10-03T19:06:55.366Z,2.97
2023-10-03T19:09:29.834Z,3.18
2023-10-03T19:12:08.303Z,2.92
2023-10-03T19:14:44.314Z,3.19
2023-10-03T19:17:19.034Z,3.12
2023-10-03T19:19:55.477Z,3.15
2023-10-03T19:22:30.779Z,2.97
2023-10-03T19:25:09.514Z,3.07
2023-10-03T19:27:42.611Z,2.81
2023-10-03T19:30:20.411Z,3.02
2023-10-03T19:32:53.230Z,2.92
2023-10-03T19:35:25.767Z,2.77
2023-10-03T19:37:58.915Z,2.73
2023-10-03T19:40:32.875Z,2.53
2023-10-03T19:43:06.045Z,2.49
2023-10-03T19:45:41.934Z,2.70
2023-10-03T19:48:14.367Z,2.69
2023-10-03T19:50:46.713Z,2.66
2023-10-03T19:53:19.687Z,2.40
2023-10-03T19:55:51.977Z,2.74
2023-10-03T19:58:24.379Z,2.81
2023-10-03T20:00:59.436Z,2.86
2023-10-03T20:03:32.093Z,2.52
2023-10-03T20:06:09.711Z,2.62
2023-10-03T20:08:42.123Z,2.40
2023-10-03T20:11:14.901Z,2.34
2023-10-03T20:13:48.693Z,2.28
2023-10-03T20:16:25.135Z,2.39
2023-10-03T20:18:58.142Z,2.21
2023-10-03T20:21:30.606Z,2.37
2023-10-03T20:24:03.308Z,2.41
2023-10-03T20:26:35.704Z,2.26
2023-10-03T20:29:08.088Z,2.04
2023-10-03T20:31:43.047Z,2.30
2023-10-03T20:34:16.202Z,2.21
2023-10-03T20:36:49.112Z,2.09
2023-10-03T20:39:22.157Z,2.25
2023-10-03T20:41:54.617Z,2.02
2023-10-03T20:44:27.061Z,1.96
2023-10-03T20:47:05.699Z,2.24
2023-10-03T20:49:38.016Z,2.26
2023-10-03T20:52:10.914Z,2.00
2023-10-03T20:54:43.122Z,2.24
2023-10-03T20:57:15.514Z,2.29
2023-10-03T20:59:47.847Z,2.31
2023-10-03T21:02:24.670Z,2.60
2023-10-03T21:04:58.624Z,2.40
2023-10-03T21:07:32.386Z,2.39
2023-10-03T21:10:06.324Z,2.51
2023-10-03T21:12:38.652Z,2.74
2023-10-03T21:15:13.433Z,2.49
2023-10-03T21:17:48.816Z,2.36
2023-10-03T21:20:21.100Z,2.39
2023-10-03T21:22:55.478Z,2.37
2023-10-03T21:25:28.137Z,2.45
2023-10-03T21:28:01.717Z,2.34
2023-10-03T21:30:34.171Z,2.39
2023-10-03T21:33:10.520Z,2.30
2023-10-03T21:35:42.902Z,2.36
2023-10-03T21:38:15.180Z,2.27
2023-10-03T21:40:48.263Z,2.27
2023-10-03T21:43:20.728Z,2.34
2023-10-03T21:45:53.100Z,2.31
2023-10-03T21:48:28.141Z,2.26
2023-10-03T21:51:06.288Z,2.29
2023-10-03T21:53:41.918Z,2.20
2023-10-03T21:56:15.065Z,2.15
2023-10-03T21:58:47.818Z,2.19
2023-10-03T22:01:27.364Z,2.11
2023-10-03T22:04:02.961Z,2.20
2023-10-03T22:06:35.261Z,2.35
2023-10-03T22:09:11.326Z,2.12
2023-10-03T22:11:43.751Z,2.06
2023-10-03T22:14:18.948Z,2.09
2023-10-03T22:16:51.822Z,2.09
2023-10-03T22:19:27.067Z,2.18
2023-10-03T22:21:59.381Z,2.10
2023-10-03T22:24:31.884Z,2.06
2023-10-03T22:27:04.218Z,2.15
2023-10-03T22:29:36.506Z,2.09
2023-10-03T22:32:09.910Z,2.09
2023-10-03T22:34:44.931Z,2.09
2023-10-03T22:37:17.198Z,1.93
2023-10-03T22:39:51.548Z,1.96
2023-10-03T22:42:24.524Z,1.80
2023-10-03T22:44:57.170Z,1.93
2023-10-03T22:47:29.549Z,1.81
2023-10-03T22:50:05.408Z,2.13
2023-10-03T22:52:37.786Z,2.13
2023-10-03T22:55:10.630Z,2.36
2023-10-03T22:57:42.931Z,2.13
2023-10-03T23:00:16.506Z,2.29
2023-10-03T23:02:48.895Z,1.94
2023-10-03T23:05:24.131Z,2.04
2023-10-03T23:07:56.365Z,2.06
2023-10-03T23:10:29.192Z,2.06
2023-10-03T23:13:01.704Z,2.06
2023-10-03T23:15:34.065Z,2.16
2023-10-03T23:18:06.472Z,2.08
2023-10-03T23:20:44.641Z,2.02
2023-10-03T23:23:17.334Z,1.94
2023-10-03T23:25:49.625Z,1.99
2023-10-03T23:28:22.054Z,2.02
2023-10-03T23:30:54.373Z,1.83
2023-10-03T23:33:28.178Z,2.10
2023-10-03T23:36:04.236Z,2.00
2023-10-03T23:38:37.081Z,2.19
2023-10-03T23:41:10.917Z,2.09
2023-10-03T23:43:43.276Z,1.79
2023-10-03T23:46:15.590Z,2.01
2023-10-03T23:48:49.269Z,1.95
2023-10-03T23:51:24.394Z,2.04
2023-10-03T23:53:57.721Z,2.22
2023-10-03T23:56:35.019Z,2.04
2023-10-03T23:59:11.116Z,1.94
